Time;durP1;ratioP1;P1;durP2;ratioP2;P2;SDS_P1;SDS_P2;PMS_P1;PMS_P2;Temp;Humidity;BMP_temperature;BMP_pressure;BME280_temperature;BME280_humidity;BME280_pressure;Samples;Min_cycle;Max_cycle;Signal;HPM_P1;HPM_P2
2021/08/22 00:02:19;;;;;;;12.63;10.48;;;;;;;12.57;75.15;100201.45;254311;1100;115760;-66
2021/08/22 00:07:22;;;;;;;9.58;8.40;;;;;;;12.48;74.97;100196.48;254068;1100;116820;-65
2021/08/22 00:12:26;;;;;;;14.83;10.78;;;;;;;12.40;75.42;100196.84;255474;1100;115527;-66
2021/08/22 00:17:30;;;;;;;14.70;10.73;;;;;;;12.41;75.35;100194.98;254342;1104;117459;-66
2021/08/22 00:22:33;;;;;;;16.65;11.28;;;;;;;12.46;75.49;100195.91;255651;1104;116871;-65
2021/08/22 00:27:36;;;;;;;24.10;13.65;;;;;;;12.44;75.58;100189.98;253611;1104;117701;-65
2021/08/22 00:32:39;;;;;;;22.20;14.60;;;;;;;12.40;75.43;100186.15;254330;1104;116664;-65
2021/08/22 00:37:42;;;;;;;19.25;15.88;;;;;;;12.37;75.65;100177.78;257227;1104;116879;-67
2021/08/22 00:42:48;;;;;;;17.45;14.08;;;;;;;12.42;76.18;100181.38;255758;1104;116652;-67
2021/08/22 00:47:51;;;;;;;17.23;12.25;;;;;;;12.54;75.95;100175.17;253764;1100;116572;-65
2021/08/22 00:52:54;;;;;;;24.28;13.78;;;;;;;12.52;75.78;100172.77;257240;1105;117034;-66
2021/08/22 00:57:58;;;;;;;16.13;12.13;;;;;;;12.50;76.38;100168.70;257049;1104;118072;-66
2021/08/22 01:03:17;;;;;;;22.15;15.28;;;;;;;12.54;75.92;100167.97;257094;1104;117267;-66
2021/08/22 01:08:39;;;;;;;33.07;21.00;;;;;;;12.58;75.86;100170.98;257222;1104;115887;-65
2021/08/22 01:13:52;;;;;;;42.80;29.05;;;;;;;12.55;75.89;100169.59;255854;1104;115306;-64
2021/08/22 01:18:59;;;;;;;39.03;26.58;;;;;;;12.56;76.09;100170.41;257028;1104;115759;-64
2021/08/22 01:24:03;;;;;;;30.88;22.25;;;;;;;12.50;75.85;100166.03;255301;1104;116746;-66
2021/08/22 01:29:08;;;;;;;31.65;20.98;;;;;;;12.48;75.86;100163.59;253433;1104;116304;-67
2021/08/22 01:34:13;;;;;;;28.30;20.90;;;;;;;12.53;76.31;100155.67;253427;1104;116843;-67
2021/08/22 01:39:19;;;;;;;17.83;14.85;;;;;;;12.50;76.50;100152.66;253685;1104;116722;-68
2021/08/22 01:44:22;;;;;;;12.83;11.33;;;;;;;12.51;76.41;100149.75;254073;1104;117404;-66
2021/08/22 01:49:26;;;;;;;11.10;9.90;;;;;;;12.52;76.54;100143.35;253483;1099;117201;-68
2021/08/22 01:54:29;;;;;;;15.28;11.05;;;;;;;12.55;76.73;100147.38;256078;1104;117026;-63
2021/08/22 01:59:36;;;;;;;14.00;9.50;;;;;;;12.60;76.63;100144.81;255107;1104;116744;-66
2021/08/22 02:04:47;;;;;;;11.13;8.68;;;;;;;12.60;76.57;100150.98;254059;1104;115875;-67
2021/08/22 02:10:09;;;;;;;14.20;9.48;;;;;;;12.62;76.72;100135.50;253589;1099;116854;-66
2021/08/22 02:15:19;;;;;;;11.70;8.83;;;;;;;12.77;77.30;100135.00;256132;1104;115457;-66
2021/08/22 02:20:24;;;;;;;10.13;8.30;;;;;;;12.93;77.62;100134.21;254824;1104;115606;-63
2021/08/22 02:25:32;;;;;;;9.78;8.13;;;;;;;13.05;77.80;100126.95;255781;1104;115828;-64
2021/08/22 02:30:37;;;;;;;16.35;9.15;;;;;;;13.14;77.55;100122.83;255256;1104;115568;-63
2021/08/22 02:35:40;;;;;;;9.73;8.15;;;;;;;13.26;77.17;100121.95;253810;1104;115251;-65
2021/08/22 02:40:43;;;;;;;13.43;7.68;;;;;;;13.33;77.28;100111.91;257087;1104;116054;-64
2021/08/22 02:45:47;;;;;;;12.85;8.43;;;;;;;13.34;77.13;100118.89;257130;1104;115967;-65
2021/08/22 02:50:52;;;;;;;13.10;9.15;;;;;;;13.40;77.72;100116.05;256342;1104;115077;-65
2021/08/22 02:55:57;;;;;;;8.58;7.55;;;;;;;13.56;77.89;100111.73;257139;1104;116383;-63
2021/08/22 03:01:01;;;;;;;9.10;7.08;;;;;;;13.72;77.87;100112.78;257097;1104;115491;-67
2021/08/22 03:06:04;;;;;;;8.80;7.90;;;;;;;13.88;77.57;100111.11;257099;1104;116419;-66
2021/08/22 03:11:07;;;;;;;10.28;7.80;;;;;;;13.98;77.43;100103.22;256889;1104;115063;-64
2021/08/22 03:16:11;;;;;;;6.80;6.20;;;;;;;14.05;77.29;100114.58;257022;1104;117192;-64
2021/08/22 03:21:15;;;;;;;8.40;7.48;;;;;;;14.21;77.39;100127.11;257209;1104;115468;-63
2021/08/22 03:26:18;;;;;;;9.75;8.75;;;;;;;14.33;77.81;100119.77;257107;1104;115391;-63
2021/08/22 03:31:21;;;;;;;8.70;7.80;;;;;;;14.43;77.29;100121.77;257221;1104;115677;-63
2021/08/22 03:36:26;;;;;;;9.58;8.33;;;;;;;14.52;77.01;100119.45;256591;1099;116074;-64
2021/08/22 03:41:28;;;;;;;10.53;8.15;;;;;;;14.58;77.05;100127.32;255946;1104;115790;-64
2021/08/22 03:46:31;;;;;;;13.03;8.83;;;;;;;14.59;77.15;100125.45;253748;1104;115890;-65
2021/08/22 03:51:35;;;;;;;8.68;7.88;;;;;;;14.60;77.51;100127.88;255850;1099;115944;-67
2021/08/22 03:56:39;;;;;;;9.08;7.93;;;;;;;14.62;77.39;100131.13;256578;1104;115926;-66
2021/08/22 04:01:43;;;;;;;14.03;9.38;;;;;;;14.66;77.36;100137.61;253950;1104;115639;-68
2021/08/22 04:06:50;;;;;;;16.55;10.80;;;;;;;14.66;77.29;100144.85;253793;1099;115533;-68
2021/08/22 04:11:56;;;;;;;10.87;8.73;;;;;;;14.64;77.16;100138.92;254834;1099;116202;-68
2021/08/22 04:16:59;;;;;;;11.13;8.58;;;;;;;14.63;76.78;100148.03;255338;1104;115678;-65
2021/08/22 04:22:03;;;;;;;9.83;8.83;;;;;;;14.61;76.99;100142.11;253892;1104;116030;-68
2021/08/22 04:27:07;;;;;;;10.65;9.00;;;;;;;14.55;77.32;100145.78;253880;1104;115567;-68
2021/08/22 04:32:12;;;;;;;11.50;8.40;;;;;;;14.54;77.19;100136.12;253699;1104;115604;-68
2021/08/22 04:37:15;;;;;;;13.35;9.10;;;;;;;14.57;77.35;100138.30;256076;1104;116575;-63
2021/08/22 04:42:18;;;;;;;17.58;9.60;;;;;;;14.52;77.37;100128.31;253905;1098;115654;-64
2021/08/22 04:47:21;;;;;;;12.03;10.83;;;;;;;14.47;77.94;100122.89;255192;1104;115739;-66
2021/08/22 04:52:25;;;;;;;9.90;8.90;;;;;;;14.45;77.74;100114.28;253885;1104;115761;-65
2021/08/22 04:57:28;;;;;;;9.00;8.18;;;;;;;14.49;78.27;100112.72;256277;1104;115023;-66
2021/08/22 05:02:32;;;;;;;9.20;7.90;;;;;;;14.69;78.24;100106.75;254859;1104;115573;-65
2021/08/22 05:07:34;;;;;;;9.13;7.70;;;;;;;14.83;78.24;100116.04;255231;1104;115296;-66
2021/08/22 05:12:37;;;;;;;10.80;8.45;;;;;;;15.05;78.47;100114.09;253762;1104;115956;-65
2021/08/22 05:17:40;;;;;;;8.98;8.05;;;;;;;15.23;78.14;100106.75;256034;1104;115368;-66
2021/08/22 05:22:42;;;;;;;8.38;7.68;;;;;;;15.40;77.89;100115.47;257127;1104;115198;-66
2021/08/22 05:27:46;;;;;;;9.33;8.25;;;;;;;15.61;77.94;100122.63;257072;1104;116089;-65
2021/08/22 05:32:50;;;;;;;8.85;7.15;;;;;;;15.79;77.62;100122.23;256689;1104;116067;-65
2021/08/22 05:37:54;;;;;;;9.53;7.23;;;;;;;15.88;77.50;100119.06;253833;1104;116351;-66
2021/08/22 05:42:58;;;;;;;7.45;6.80;;;;;;;16.12;77.44;100112.19;255619;1105;115650;-64
2021/08/22 05:48:01;;;;;;;10.68;7.30;;;;;;;16.37;77.18;100108.80;257132;1104;115991;-66
2021/08/22 05:53:04;;;;;;;6.98;6.15;;;;;;;16.54;77.00;100111.26;254871;1099;115493;-66
2021/08/22 05:58:07;;;;;;;8.65;5.98;;;;;;;16.72;77.05;100105.44;253792;1104;114942;-66
2021/08/22 06:03:10;;;;;;;9.70;5.90;;;;;;;16.94;76.99;100111.39;254822;1104;115144;-66
2021/08/22 06:08:13;;;;;;;5.30;4.90;;;;;;;17.22;76.73;100109.25;254481;1104;115058;-66
2021/08/22 06:13:17;;;;;;;6.33;5.75;;;;;;;17.57;76.40;100101.16;253704;1104;115255;-66
2021/08/22 06:18:20;;;;;;;6.20;5.63;;;;;;;17.87;76.24;100102.20;253900;1104;115561;-66
2021/08/22 06:23:24;;;;;;;9.45;7.00;;;;;;;18.19;75.95;100108.03;253909;1104;115358;-68
2021/08/22 06:28:27;;;;;;;5.90;5.30;;;;;;;18.56;75.18;100101.39;254465;1104;114996;-68
2021/08/22 06:33:31;;;;;;;8.30;7.25;;;;;;;18.91;74.61;100106.61;256986;1104;115754;-69
2021/08/22 06:38:33;;;;;;;8.68;7.60;;;;;;;19.39;74.55;100114.88;253994;1104;115583;-68
2021/08/22 06:43:35;;;;;;;7.65;6.83;;;;;;;19.76;73.89;100109.70;253777;1104;115471;-68
2021/08/22 06:48:38;;;;;;;7.23;5.73;;;;;;;20.02;72.82;100107.52;254017;1104;115906;-68
2021/08/22 06:53:42;;;;;;;7.18;6.48;;;;;;;20.10;72.37;100111.50;253754;1104;115727;-69
2021/08/22 06:58:45;;;;;;;5.63;5.05;;;;;;;20.17;71.78;100104.65;253804;1104;115305;-68
2021/08/22 07:03:48;;;;;;;8.05;5.35;;;;;;;19.98;71.08;100100.26;253805;1104;115686;-68
2021/08/22 07:08:52;;;;;;;9.00;6.70;;;;;;;19.94;71.57;100099.22;255925;1104;115405;-68
2021/08/22 07:13:55;;;;;;;7.25;6.13;;;;;;;20.07;71.29;100101.25;257024;1104;117572;-68
2021/08/22 07:18:58;;;;;;;6.10;5.55;;;;;;;20.17;70.54;100093.82;257049;1104;115889;-69
2021/08/22 07:24:02;;;;;;;12.28;8.08;;;;;;;20.35;70.95;100088.72;254191;1104;117407;-67
2021/08/22 07:29:05;;;;;;;11.70;7.13;;;;;;;20.49;70.67;100101.27;253757;1104;116924;-68
2021/08/22 07:34:07;;;;;;;7.80;7.00;;;;;;;20.74;70.61;100102.03;253896;1105;116664;-68
2021/08/22 07:39:12;;;;;;;7.20;5.98;;;;;;;20.92;69.69;100106.63;253699;1104;116239;-69
2021/08/22 07:44:14;;;;;;;8.15;5.43;;;;;;;21.17;69.50;100111.65;253724;1104;116558;-69
2021/08/22 07:49:19;;;;;;;5.73;5.13;;;;;;;21.44;68.78;100115.58;253854;1104;115711;-70
2021/08/22 07:54:22;;;;;;;6.50;5.88;;;;;;;21.73;68.70;100112.63;253916;1098;115615;-69
2021/08/22 07:59:26;;;;;;;6.53;5.93;;;;;;;21.95;68.07;100115.48;253532;1104;114952;-69
2021/08/22 08:04:30;;;;;;;7.37;6.57;;;;;;;22.22;67.75;100105.75;254328;1104;115728;-69
2021/08/22 08:09:33;;;;;;;8.33;6.40;;;;;;;22.57;67.22;100109.64;256729;1104;115611;-71
2021/08/22 08:14:37;;;;;;;5.60;5.18;;;;;;;23.06;67.50;100116.95;257191;1104;116053;-70
2021/08/22 08:19:40;;;;;;;8.05;5.73;;;;;;;23.41;66.05;100118.01;257185;1104;116274;-71
2021/08/22 08:24:44;;;;;;;6.38;5.43;;;;;;;23.63;65.26;100114.48;253684;1104;116912;-69
2021/08/22 08:29:47;;;;;;;7.05;4.85;;;;;;;23.89;65.11;100109.15;253510;1104;116299;-73
2021/08/22 08:34:54;;;;;;;8.73;7.05;;;;;;;24.28;64.82;100111.09;253739;1104;116236;-71
2021/08/22 08:39:57;;;;;;;7.20;6.45;;;;;;;24.59;64.29;100108.26;253549;1104;116578;-71
2021/08/22 08:45:00;;;;;;;11.78;7.58;;;;;;;25.02;63.31;100109.13;253941;1104;116831;-71
2021/08/22 08:50:05;;;;;;;7.97;7.27;;;;;;;25.53;63.40;100114.81;254556;1104;116343;-70
2021/08/22 08:55:21;;;;;;;7.55;6.85;;;;;;;25.90;62.73;100116.02;253533;1104;117628;-72
2021/08/22 09:00:37;;;;;;;8.20;6.63;;;;;;;26.05;61.04;100109.98;253782;1104;117036;-70
2021/08/22 09:05:50;;;;;;;7.48;6.85;;;;;;;26.14;60.68;100110.75;254122;1104;117290;-69
2021/08/22 09:11:38;;;;;;;5.80;5.23;;;;;;;26.36;60.62;100105.02;253598;1100;116638;-70
2021/08/22 09:17:15;;;;;;;8.90;8.15;;;;;;;26.46;59.76;100110.11;257019;1104;115916;-69
2021/08/22 09:22:43;;;;;;;8.08;6.48;;;;;;;26.76;59.36;100110.87;255731;1104;116359;-70
2021/08/22 09:28:06;;;;;;;8.07;7.27;;;;;;;26.75;58.25;100100.26;257021;1104;115973;-71
2021/08/22 09:33:47;;;;;;;8.95;7.35;;;;;;;26.97;58.27;100099.14;254726;1104;117202;-71
2021/08/22 09:39:27;;;;;;;7.88;7.00;;;;;;;27.16;57.36;100096.72;257396;1104;116269;-70
2021/08/22 09:44:47;;;;;;;8.15;7.35;;;;;;;27.24;56.32;100101.30;257075;1104;117136;-71
2021/08/22 09:50:17;;;;;;;7.28;6.50;;;;;;;27.25;56.19;100102.89;257176;1104;116251;-73
2021/08/22 09:55:35;;;;;;;7.93;7.18;;;;;;;26.89;55.63;100095.33;257093;1104;116001;-73
2021/08/22 10:00:55;;;;;;;9.48;7.65;;;;;;;27.25;55.75;100089.20;257292;1104;136436;-73
2021/08/22 10:06:24;;;;;;;6.93;6.35;;;;;;;27.52;55.57;100093.27;254763;1104;115694;-71
2021/08/22 10:11:35;;;;;;;7.03;6.45;;;;;;;27.76;55.12;100079.66;253736;1099;116764;-71
2021/08/22 10:16:39;;;;;;;7.48;6.08;;;;;;;27.97;54.41;100085.03;253510;1104;115894;-72
2021/08/22 10:21:42;;;;;;;7.15;6.45;;;;;;;28.10;53.30;100083.09;253737;1100;114891;-72
2021/08/22 10:26:50;;;;;;;6.45;5.95;;;;;;;27.73;52.31;100080.34;254296;1104;115141;-71
2021/08/22 10:31:54;;;;;;;7.93;6.15;;;;;;;27.36;52.20;100079.44;254593;1104;115551;-71
2021/08/22 10:36:57;;;;;;;9.83;6.55;;;;;;;27.32;52.94;100070.30;253703;1104;115315;-71
2021/08/22 10:42:22;;;;;;;7.18;6.10;;;;;;;27.23;52.66;100072.32;253621;1104;115338;-70
2021/08/22 10:47:34;;;;;;;7.45;5.80;;;;;;;27.24;52.66;100070.38;253729;1104;115117;-70
2021/08/22 10:52:41;;;;;;;8.78;5.95;;;;;;;27.14;52.82;100075.16;253520;1104;115604;-71
2021/08/22 10:57:44;;;;;;;6.95;6.45;;;;;;;27.33;53.25;100068.36;254068;1104;115794;-71
2021/08/22 11:02:48;;;;;;;8.40;6.40;;;;;;;27.43;53.86;100068.74;253805;1104;116926;-71
2021/08/22 11:07:55;;;;;;;6.25;5.68;;;;;;;27.70;52.53;100064.59;254100;1099;116253;-71
2021/08/22 11:12:58;;;;;;;7.78;6.48;;;;;;;27.92;52.61;100054.31;254048;1104;115427;-72
2021/08/22 11:18:02;;;;;;;6.60;5.88;;;;;;;28.19;52.07;100059.08;254013;1104;115772;-72
2021/08/22 11:23:08;;;;;;;6.80;5.45;;;;;;;28.18;51.21;100049.27;253869;1104;115728;-71
2021/08/22 11:28:15;;;;;;;6.00;5.48;;;;;;;28.30;50.68;100049.28;255167;1104;116014;-70
2021/08/22 11:33:19;;;;;;;5.58;5.18;;;;;;;28.22;50.42;100052.15;255735;1104;114771;-72
2021/08/22 11:38:22;;;;;;;4.80;4.25;;;;;;;28.18;50.44;100038.30;254232;1104;116058;-71
2021/08/22 11:43:28;;;;;;;6.28;5.70;;;;;;;28.24;49.33;100042.44;254073;1104;115456;-72
2021/08/22 11:48:32;;;;;;;6.48;5.53;;;;;;;28.23;49.64;100035.36;254051;1104;117044;-71
2021/08/22 11:53:36;;;;;;;6.05;5.30;;;;;;;28.39;48.66;100035.45;257250;1104;115472;-71
2021/08/22 11:58:40;;;;;;;6.55;6.05;;;;;;;28.58;49.34;100029.33;255874;1104;115765;-71
2021/08/22 12:03:56;;;;;;;9.30;7.30;;;;;;;28.63;49.94;100020.86;256103;1104;116861;-72
2021/08/22 12:09:03;;;;;;;6.03;5.60;;;;;;;28.64;50.12;100026.00;256840;1104;115486;-72
2021/08/22 12:14:15;;;;;;;7.25;6.28;;;;;;;28.53;49.24;100026.83;257004;1104;114892;-72
2021/08/22 12:19:24;;;;;;;7.20;6.60;;;;;;;28.65;48.28;100005.66;254913;1104;116130;-71
2021/08/22 12:24:30;;;;;;;8.10;6.77;;;;;;;28.80;47.75;100006.83;254252;1104;115258;-70
2021/08/22 12:29:36;;;;;;;7.83;6.75;;;;;;;28.83;47.30;100000.67;254553;1104;118338;-71
2021/08/22 12:34:40;;;;;;;9.33;8.13;;;;;;;28.62;48.02;99994.58;254159;1104;116505;-70
2021/08/22 12:40:05;;;;;;;5.75;5.25;;;;;;;28.36;47.86;99995.81;254732;1104;115818;-71
2021/08/22 12:45:15;;;;;;;8.63;6.55;;;;;;;27.88;48.57;99993.13;254198;1104;115229;-72
2021/08/22 12:50:22;;;;;;;7.45;6.85;;;;;;;27.82;49.03;99992.58;255036;1104;115778;-72
2021/08/22 12:55:27;;;;;;;6.98;6.38;;;;;;;27.88;49.56;99993.13;254480;1104;116050;-72
2021/08/22 13:00:33;;;;;;;7.30;6.63;;;;;;;28.09;48.50;99999.28;254396;1104;115830;-72
2021/08/22 13:05:42;;;;;;;7.00;6.47;;;;;;;28.31;48.31;99984.29;254038;1104;115997;-72
2021/08/22 13:10:52;;;;;;;7.18;6.30;;;;;;;28.21;48.50;99977.34;254805;1104;116650;-73
2021/08/22 13:15:59;;;;;;;7.10;5.68;;;;;;;28.15;48.31;99975.95;254608;1100;116366;-73
2021/08/22 13:21:09;;;;;;;11.10;6.37;;;;;;;28.03;48.47;99973.25;254296;1104;118726;-73
2021/08/22 13:26:15;;;;;;;9.43;6.53;;;;;;;27.90;48.61;99977.14;254493;1104;118020;-72
2021/08/22 13:31:19;;;;;;;7.57;6.00;;;;;;;28.04;48.73;99981.13;254496;1104;115679;-72
2021/08/22 13:36:24;;;;;;;6.08;5.68;;;;;;;28.09;49.08;99956.23;255460;1100;116542;-72
2021/08/22 13:41:32;;;;;;;7.00;5.20;;;;;;;28.29;48.91;99953.68;254351;1104;117550;-72
2021/08/22 13:46:38;;;;;;;7.60;6.80;;;;;;;28.11;48.83;99947.66;255532;1099;116069;-72
2021/08/22 13:51:41;;;;;;;6.73;6.20;;;;;;;27.93;48.86;99938.89;255094;1104;117230;-71
2021/08/22 13:56:45;;;;;;;8.10;7.40;;;;;;;27.63;48.65;99946.58;254407;1104;116846;-71
2021/08/22 14:01:48;;;;;;;6.80;6.30;;;;;;;27.54;48.20;99945.86;254300;1104;116297;-72
2021/08/22 14:06:51;;;;;;;7.68;6.98;;;;;;;27.67;48.35;99939.28;255773;1104;115496;-71
2021/08/22 14:11:54;;;;;;;8.13;6.48;;;;;;;27.88;48.22;99930.11;254441;1099;115850;-72
2021/08/22 14:16:58;;;;;;;8.87;6.90;;;;;;;27.92;48.65;99920.06;254070;1100;115706;-72
2021/08/22 14:22:04;;;;;;;7.10;6.50;;;;;;;27.76;47.99;99919.99;254236;1104;119023;-71
2021/08/22 14:27:08;;;;;;;8.25;6.00;;;;;;;27.63;48.36;99916.45;255218;1104;116249;-71
2021/08/22 14:32:11;;;;;;;6.53;5.93;;;;;;;27.39;47.89;99916.45;254186;1104;115590;-72
2021/08/22 14:37:15;;;;;;;7.27;6.20;;;;;;;27.16;47.98;99907.90;254110;1100;115509;-71
2021/08/22 14:42:18;;;;;;;7.65;6.88;;;;;;;26.99;48.50;99899.88;254299;1104;115773;-70
2021/08/22 14:47:22;;;;;;;7.40;6.70;;;;;;;26.85;49.09;99902.92;253976;1104;115177;-72
2021/08/22 14:52:26;;;;;;;7.95;7.18;;;;;;;26.77;49.68;99901.88;254138;1104;115819;-72
2021/08/22 14:57:29;;;;;;;7.25;6.65;;;;;;;26.73;49.47;99900.16;254325;1104;117029;-70
2021/08/22 15:02:33;;;;;;;7.00;6.50;;;;;;;26.75;49.39;99897.88;254047;1104;118333;-69
2021/08/22 15:07:39;;;;;;;7.13;6.53;;;;;;;26.77;49.32;99885.47;253987;1104;116149;-70
2021/08/22 15:12:41;;;;;;;6.83;6.33;;;;;;;26.79;49.39;99883.20;254202;1104;117160;-69
2021/08/22 15:17:44;;;;;;;6.53;6.03;;;;;;;26.77;48.97;99880.00;255295;1104;115676;-70
2021/08/22 15:22:50;;;;;;;10.80;7.15;;;;;;;26.76;49.68;99883.07;255104;1104;115655;-71
2021/08/22 15:27:53;;;;;;;7.70;7.10;;;;;;;26.69;49.55;99882.82;254518;1104;116406;-71
2021/08/22 15:32:56;;;;;;;14.95;7.10;;;;;;;26.74;50.25;99874.41;255486;1100;116110;-70
2021/08/22 15:38:00;;;;;;;6.23;5.73;;;;;;;26.71;50.35;99869.61;254497;1104;116572;-70
2021/08/22 15:43:06;;;;;;;6.25;5.75;;;;;;;26.56;50.17;99878.48;255847;1104;117263;-70
2021/08/22 15:48:10;;;;;;;15.23;7.33;;;;;;;26.35;50.02;99873.84;257205;1104;115673;-70
2021/08/22 15:53:13;;;;;;;7.85;7.05;;;;;;;26.12;50.17;99876.12;257236;1104;115122;-71
2021/08/22 15:58:17;;;;;;;8.50;7.35;;;;;;;25.83;50.33;99866.08;257152;1104;116073;-70
2021/08/22 16:03:19;;;;;;;6.47;5.87;;;;;;;25.52;50.60;99862.89;257139;1104;115345;-73
2021/08/22 16:08:23;;;;;;;8.27;7.47;;;;;;;25.31;51.20;99862.87;254560;1100;115127;-72
2021/08/22 16:13:28;;;;;;;7.65;6.90;;;;;;;25.09;51.73;99857.66;254170;1104;116076;-71
2021/08/22 16:18:32;;;;;;;10.90;7.70;;;;;;;24.89;52.40;99861.91;254128;1104;116006;-68
2021/08/22 16:23:36;;;;;;;7.47;6.87;;;;;;;24.70;52.66;99872.41;254029;1104;115712;-69
2021/08/22 16:28:39;;;;;;;7.53;6.93;;;;;;;24.56;53.19;99864.41;254431;1104;115331;-71
2021/08/22 16:33:42;;;;;;;8.78;7.73;;;;;;;24.36;53.33;99865.91;254115;1100;117382;-71
2021/08/22 16:38:45;;;;;;;7.85;6.68;;;;;;;24.18;53.67;99865.08;255184;1100;115744;-72
2021/08/22 16:43:49;;;;;;;9.45;7.40;;;;;;;24.08;54.66;99861.90;254169;1104;115032;-72
2021/08/22 16:48:54;;;;;;;9.90;6.70;;;;;;;23.96;54.77;99875.34;254025;1104;115071;-72
2021/08/22 16:53:57;;;;;;;8.80;7.38;;;;;;;23.82;55.07;99862.70;253964;1104;115613;-72
2021/08/22 16:58:59;;;;;;;8.70;7.85;;;;;;;23.66;56.27;99872.44;254022;1104;115858;-71
2021/08/22 17:04:02;;;;;;;10.07;8.83;;;;;;;23.45;56.52;99864.05;254197;1104;115001;-70
2021/08/22 17:09:07;;;;;;;12.10;7.63;;;;;;;23.24;57.37;99860.30;253966;1104;115655;-70
2021/08/22 17:14:11;;;;;;;8.43;7.60;;;;;;;23.05;57.65;99874.17;254201;1104;137467;-70
2021/08/22 17:19:14;;;;;;;11.50;8.33;;;;;;;22.91;57.89;99876.20;254293;1100;117176;-71
2021/08/22 17:24:17;;;;;;;8.65;7.30;;;;;;;22.73;58.55;99879.90;253828;1104;116125;-69
2021/08/22 17:29:21;;;;;;;7.90;7.15;;;;;;;22.55;58.93;99878.20;254785;1104;115216;-69
2021/08/22 17:34:25;;;;;;;10.45;7.58;;;;;;;22.39;59.03;99872.34;254288;1104;115154;-70
2021/08/22 17:39:29;;;;;;;9.43;6.73;;;;;;;22.15;59.35;99878.09;254464;1104;115905;-71
2021/08/22 17:44:32;;;;;;;9.65;7.35;;;;;;;21.97;59.81;99879.84;254525;1104;115802;-71
2021/08/22 17:49:35;;;;;;;10.48;8.80;;;;;;;21.84;59.83;99875.24;254653;1104;116157;-71
2021/08/22 17:54:39;;;;;;;7.85;7.10;;;;;;;21.82;60.17;99878.27;257135;1104;115940;-71
2021/08/22 17:59:43;;;;;;;12.43;7.33;;;;;;;21.82;60.54;99882.89;255666;1098;115644;-69
2021/08/22 18:04:46;;;;;;;7.67;7.07;;;;;;;21.73;60.68;99873.85;254369;1100;115999;-70
2021/08/22 18:09:53;;;;;;;8.78;7.73;;;;;;;21.68;60.65;99868.56;255924;1104;115194;-69
2021/08/22 18:14:58;;;;;;;8.33;7.58;;;;;;;21.62;61.17;99878.72;254257;1104;115724;-72
2021/08/22 18:20:05;;;;;;;8.93;7.60;;;;;;;21.54;61.36;99871.29;255513;1104;115556;-71
2021/08/22 18:25:09;;;;;;;9.30;7.10;;;;;;;21.53;61.52;99879.73;254062;1104;114864;-69
2021/08/22 18:30:15;;;;;;;6.95;6.25;;;;;;;21.50;61.68;99871.09;254166;1104;114944;-67
2021/08/22 18:35:19;;;;;;;8.43;6.98;;;;;;;21.51;61.76;99888.17;254123;1104;115947;-68
2021/08/22 18:40:23;;;;;;;8.23;6.73;;;;;;;21.48;61.53;99883.34;253999;1104;116642;-68
2021/08/22 18:45:26;;;;;;;7.70;7.00;;;;;;;21.42;61.86;99884.55;254375;1104;115054;-69
2021/08/22 18:50:31;;;;;;;6.60;5.98;;;;;;;21.33;61.52;99881.77;254204;1100;116114;-68
2021/08/22 18:55:34;;;;;;;6.80;6.23;;;;;;;21.24;61.67;99877.34;254166;1100;115298;-69
2021/08/22 19:00:38;;;;;;;9.33;6.50;;;;;;;21.14;61.70;99887.24;254340;1104;115389;-67
2021/08/22 19:05:42;;;;;;;7.05;6.30;;;;;;;21.13;62.10;99895.67;254063;1100;115818;-70
2021/08/22 19:10:46;;;;;;;7.28;6.58;;;;;;;21.10;62.08;99890.84;254184;1104;116552;-70
2021/08/22 19:15:49;;;;;;;7.08;6.35;;;;;;;21.08;62.08;99893.09;254396;1104;116359;-68
2021/08/22 19:20:53;;;;;;;7.20;6.60;;;;;;;21.02;62.14;99886.95;254028;1099;116527;-68
2021/08/22 19:25:56;;;;;;;7.88;6.30;;;;;;;20.96;62.15;99888.14;254037;1104;116794;-67
2021/08/22 19:31:00;;;;;;;6.60;6.03;;;;;;;20.92;62.05;99880.91;255998;1104;115664;-69
2021/08/22 19:36:06;;;;;;;6.37;5.73;;;;;;;20.87;62.11;99883.70;254092;1104;115937;-68
2021/08/22 19:41:09;;;;;;;6.58;6.08;;;;;;;20.84;62.14;99923.84;254053;1104;116694;-68
2021/08/22 19:46:13;;;;;;;7.60;6.93;;;;;;;20.77;62.76;99917.23;254198;1104;115352;-69
2021/08/22 19:51:17;;;;;;;11.73;6.90;;;;;;;20.70;63.13;99905.97;257011;1104;115439;-70
2021/08/22 19:56:21;;;;;;;10.33;7.70;;;;;;;20.60;63.85;99898.81;255961;1099;117375;-69
2021/08/22 20:01:24;;;;;;;8.17;7.37;;;;;;;20.62;63.63;99904.73;255299;1104;119392;-68
2021/08/22 20:06:28;;;;;;;8.83;7.90;;;;;;;20.65;63.98;99900.63;254230;1104;116511;-70
2021/08/22 20:11:35;;;;;;;10.20;8.53;;;;;;;20.62;64.05;99898.52;254221;1104;115596;-69
2021/08/22 20:16:40;;;;;;;8.45;7.65;;;;;;;20.61;64.25;99896.91;255533;1104;117190;-68
2021/08/22 20:21:43;;;;;;;11.65;10.55;;;;;;;20.60;64.48;99896.10;255562;1104;117778;-68
2021/08/22 20:26:57;;;;;;;10.30;9.20;;;;;;;20.62;64.76;99898.52;255011;1104;117075;-69
2021/08/22 20:32:00;;;;;;;9.10;8.23;;;;;;;20.59;64.91;99891.78;254489;1104;119089;-67
2021/08/22 20:37:04;;;;;;;8.80;7.58;;;;;;;20.55;65.30;99898.89;254746;1104;116417;-69
2021/08/22 20:42:09;;;;;;;9.70;7.90;;;;;;;20.48;65.22;99898.48;254520;1104;117097;-68
2021/08/22 20:47:15;;;;;;;8.45;7.48;;;;;;;20.44;65.62;99903.69;254094;1104;115978;-68
2021/08/22 20:52:19;;;;;;;8.13;7.33;;;;;;;20.41;65.91;99904.28;254397;1104;116913;-69
2021/08/22 20:57:23;;;;;;;9.55;8.20;;;;;;;20.36;66.21;99896.20;254145;1104;116810;-68
2021/08/22 21:02:26;;;;;;;9.58;8.68;;;;;;;20.31;66.43;99907.11;254216;1104;115641;-68
2021/08/22 21:07:30;;;;;;;9.23;8.43;;;;;;;20.27;66.46;99899.86;253900;1104;115738;-67
2021/08/22 21:12:34;;;;;;;11.30;8.20;;;;;;;20.13;66.43;99902.53;254007;1100;114923;-67
2021/08/22 21:17:38;;;;;;;8.65;7.85;;;;;;;20.00;66.59;99906.77;255127;1099;116247;-67
2021/08/22 21:22:40;;;;;;;9.57;8.60;;;;;;;19.97;67.09;99911.95;254704;1104;116182;-67
2021/08/22 21:27:43;;;;;;;12.13;9.20;;;;;;;19.93;67.36;99894.69;255011;1104;115571;-69
2021/08/22 21:32:48;;;;;;;8.70;7.90;;;;;;;19.96;67.51;99899.52;254187;1104;115711;-69
2021/08/22 21:37:51;;;;;;;7.93;7.23;;;;;;;19.94;67.82;99893.59;254167;1104;210666;-67
2021/08/22 21:42:55;;;;;;;8.95;8.20;;;;;;;19.90;67.94;99897.97;254181;1104;116223;-67
2021/08/22 21:47:59;;;;;;;16.90;9.20;;;;;;;19.80;68.13;99886.22;254350;1104;116713;-68
2021/08/22 21:53:08;;;;;;;8.67;7.77;;;;;;;19.72;68.23;99869.83;254309;1104;117606;-67
2021/08/22 21:58:12;;;;;;;11.40;9.40;;;;;;;19.69;68.46;99875.82;254339;1104;116915;-68
2021/08/22 22:03:18;;;;;;;17.58;9.53;;;;;;;19.61;68.57;99868.35;254171;1097;115879;-68
2021/08/22 22:08:22;;;;;;;;;;;;;;;19.54;68.91;99876.84;256643;1104;117625;-67
2021/08/22 22:13:25;;;;;;;9.18;8.25;;;;;;;19.55;69.06;99878.45;257778;1104;105023;-67
2021/08/22 22:18:29;;;;;;;10.40;9.28;;;;;;;19.59;69.08;99865.13;254874;1104;116026;-66
2021/08/22 22:23:32;;;;;;;10.50;9.50;;;;;;;19.58;69.23;99858.92;254340;1104;116779;-70
2021/08/22 22:28:35;;;;;;;12.00;9.68;;;;;;;19.57;69.48;99862.72;256130;1104;115623;-69
2021/08/22 22:33:38;;;;;;;10.53;9.43;;;;;;;19.53;69.16;99866.31;254117;1104;116009;-66
2021/08/22 22:38:41;;;;;;;10.17;8.90;;;;;;;19.49;69.32;99866.86;254511;1104;115565;-67
2021/08/22 22:43:47;;;;;;;9.85;8.93;;;;;;;19.50;69.58;99865.80;254246;1104;115784;-66
2021/08/22 22:48:50;;;;;;;9.70;8.70;;;;;;;19.45;69.82;99867.73;254121;1104;116419;-66
2021/08/22 22:53:52;;;;;;;10.80;9.60;;;;;;;19.42;69.92;99861.00;254225;1099;115507;-66
2021/08/22 22:58:56;;;;;;;10.90;9.48;;;;;;;19.39;69.87;99861.58;253952;1104;115894;-67
2021/08/22 23:03:59;;;;;;;10.48;9.18;;;;;;;19.39;70.26;99850.77;254445;1104;116286;-67
2021/08/22 23:09:03;;;;;;;10.13;9.18;;;;;;;19.33;69.75;99853.81;254808;1104;115443;-66